Pays
Station

 

Conditions  météo  pour  West Palm Beach, Palm Beach International Airport  -  Etats-Unis    Etats-Unis

  
14 °C
    
 
 

METAR pour West Palm Beach, Palm Beach International Airport :

KPBI 230553Z 30004KT 10SM FEW150 14/10 A3011 RMK AO2 SLP194 T01390100 10206 20139 50000

 

Voici le bulletin pour West Palm Beach, Palm Beach International Airport - Etats-Unis.
 
Le bulletin a été fait il y a 37 minutes, à 05:53 UTC .
Le vent soufflait à la vitesse de 2.1 mètres par seconde de Ouest/Nord-ouest (300°).
 
La température était de 14 °C, avec un point de rosée à 10 °C.
La pression atmosphérique était de 1020 hPa.
L'humidité relative était de 76.8%.
 
Il y avait 1 à 2/8ème de nébulosité à une hauteur de 4572 mètres.
 
La visibilité globale était de 16.1 kilomètres.
 

 
 
 

Pays :   A   B   C   D   E   F   G   H   I   J   K   L   M   N   O   P   Q   R   S   T   U   V   W   Y   Z

 

Partenaires :  Info Météo avec Met'info
Météo Marine avec MeteoMarine.net
Infos Site  |  Infos Légales  |  Crédits  |  Confidentialité
Contactez-nous  |  Ajouter aux favoris
© 2013-2019 METAR - Tous droits réservés